createdAt,value
2023-01-25T00:00:03.899Z,36.40
2023-01-25T00:02:30.399Z,35.23
2023-01-25T00:04:56.962Z,32.80
2023-01-25T00:07:23.437Z,33.43
2023-01-25T00:09:49.879Z,31.20
2023-01-25T00:12:16.407Z,33.43
2023-01-25T00:14:42.889Z,32.87
2023-01-25T00:17:09.453Z,31.97
2023-01-25T00:19:35.917Z,31.30
2023-01-25T00:22:02.615Z,31.27
2023-01-25T00:24:29.075Z,33.93
2023-01-25T00:26:55.560Z,34.93
2023-01-25T00:29:22.003Z,33.13
2023-01-25T00:31:57.820Z,32.97
2023-01-25T00:34:24.379Z,34.40
2023-01-25T00:36:57.354Z,33.93
2023-01-25T00:39:25.421Z,35.00
2023-01-25T00:41:51.963Z,34.37
2023-01-25T00:44:18.455Z,32.97
2023-01-25T00:46:44.953Z,30.60
2023-01-25T00:49:23.222Z,29.23
2023-01-25T00:51:50.697Z,30.03
2023-01-25T00:54:17.745Z,30.13
2023-01-25T00:56:44.333Z,30.73
2023-01-25T00:59:11.581Z,29.57
2023-01-25T01:01:38.384Z,29.93
2023-01-25T01:04:06.528Z,28.47
2023-01-25T01:06:38.618Z,29.30
2023-01-25T01:09:06.368Z,29.33
2023-01-25T01:11:32.953Z,28.93
2023-01-25T01:13:59.836Z,28.53
2023-01-25T01:16:27.168Z,31.17
2023-01-25T01:18:53.945Z,28.03
2023-01-25T01:21:20.831Z,28.00
2023-01-25T01:23:48.239Z,26.67
2023-01-25T01:26:16.549Z,26.33
2023-01-25T01:28:43.087Z,25.60
2023-01-25T01:31:13.498Z,25.70
2023-01-25T01:33:40.419Z,25.57
2023-01-25T01:36:15.293Z,24.13
2023-01-25T01:38:42.640Z,24.43
2023-01-25T01:41:09.991Z,23.77
2023-01-25T01:43:36.907Z,23.13
2023-01-25T01:46:14.316Z,23.80
2023-01-25T01:48:56.153Z,22.27
2023-01-25T01:51:44.429Z,22.80
2023-01-25T01:54:29.387Z,22.93
2023-01-25T01:57:00.917Z,22.87
2023-01-25T02:00:06.730Z,22.80
2023-01-25T02:02:33.327Z,23.40
2023-01-25T02:05:01.402Z,22.03
2023-01-25T02:07:34.821Z,22.23
2023-01-25T02:10:06.566Z,23.03
2023-01-25T02:12:33.103Z,23.17
2023-01-25T02:14:59.585Z,22.77
2023-01-25T02:17:31.521Z,22.87
2023-01-25T02:20:00.856Z,22.47
2023-01-25T02:22:33.320Z,23.10
2023-01-25T02:25:20.125Z,21.87
2023-01-25T02:28:06.667Z,23.03
2023-01-25T02:30:34.032Z,22.53
2023-01-25T02:33:00.939Z,24.07
2023-01-25T02:35:43.770Z,23.00
2023-01-25T02:38:12.655Z,22.60
2023-01-25T02:41:00.805Z,24.53
2023-01-25T02:43:32.174Z,24.50
2023-01-25T02:46:04.441Z,23.33
2023-01-25T02:48:30.901Z,24.50
2023-01-25T02:50:57.388Z,22.87
2023-01-25T02:53:23.870Z,23.57
2023-01-25T02:55:50.318Z,23.67
2023-01-25T02:58:16.754Z,25.03
2023-01-25T03:00:43.246Z,22.87
2023-01-25T03:03:09.704Z,22.63
2023-01-25T03:05:36.219Z,23.30
2023-01-25T03:08:02.659Z,23.70
2023-01-25T03:10:29.136Z,23.30
2023-01-25T03:12:55.582Z,22.60
2023-01-25T03:15:22.161Z,24.90
2023-01-25T03:17:48.598Z,23.83
2023-01-25T03:20:15.160Z,24.03
2023-01-25T03:22:41.600Z,24.57
2023-01-25T03:25:08.825Z,23.93
2023-01-25T03:27:35.490Z,23.67
2023-01-25T03:30:02.039Z,23.80
2023-01-25T03:32:28.517Z,24.33
2023-01-25T03:34:55.075Z,24.73
2023-01-25T03:37:21.647Z,23.00
2023-01-25T03:39:48.100Z,23.33
2023-01-25T03:42:15.324Z,24.20
2023-01-25T03:44:41.791Z,24.80
2023-01-25T03:47:08.334Z,23.67
2023-01-25T03:49:34.829Z,22.93
2023-01-25T03:52:01.346Z,24.47
2023-01-25T03:54:27.795Z,24.03
2023-01-25T03:56:54.299Z,22.30
2023-01-25T03:59:20.761Z,24.00
2023-01-25T04:01:47.241Z,24.23
2023-01-25T04:04:13.741Z,22.27
2023-01-25T04:06:40.427Z,23.43
2023-01-25T04:09:07.016Z,25.00
2023-01-25T04:11:33.734Z,24.33
2023-01-25T04:14:00.326Z,24.77
2023-01-25T04:16:28.070Z,24.07
2023-01-25T04:18:54.545Z,24.33
2023-01-25T04:21:21.014Z,25.83
2023-01-25T04:23:47.534Z,25.13
2023-01-25T04:26:14.579Z,24.77
2023-01-25T04:28:41.098Z,25.80
2023-01-25T04:31:07.950Z,27.77
2023-01-25T04:33:34.550Z,27.27
2023-01-25T04:36:01.162Z,27.57
2023-01-25T04:38:27.638Z,28.17
2023-01-25T04:40:54.199Z,29.40
2023-01-25T04:43:21.578Z,28.70
2023-01-25T04:45:48.249Z,29.13
2023-01-25T04:48:15.229Z,28.30
2023-01-25T04:50:42.730Z,30.00
2023-01-25T04:53:10.565Z,29.40
2023-01-25T04:55:37.078Z,29.67
2023-01-25T04:58:04.321Z,29.77
2023-01-25T05:00:32.409Z,30.83
2023-01-25T05:02:59.008Z,30.97
2023-01-25T05:05:25.543Z,31.47
2023-01-25T05:07:52.004Z,30.67
2023-01-25T05:10:18.667Z,30.50
2023-01-25T05:12:45.175Z,31.07
2023-01-25T05:15:12.034Z,28.73
2023-01-25T05:17:38.704Z,29.00
2023-01-25T05:20:05.454Z,27.53
2023-01-25T05:22:32.122Z,27.73
2023-01-25T05:24:59.289Z,28.23
2023-01-25T05:27:25.928Z,26.57
2023-01-25T05:29:52.370Z,25.70
2023-01-25T05:32:20.603Z,24.30
2023-01-25T05:34:47.677Z,25.60
2023-01-25T05:37:17.269Z,23.80
2023-01-25T05:39:43.734Z,23.33
2023-01-25T05:42:17.899Z,22.67
2023-01-25T05:44:47.065Z,23.20
2023-01-25T05:47:15.792Z,22.53
2023-01-25T05:49:42.306Z,23.57
2023-01-25T05:52:13.838Z,23.47
2023-01-25T05:54:40.286Z,24.20
2023-01-25T05:57:06.754Z,25.13
2023-01-25T05:59:33.202Z,25.43
2023-01-25T06:01:59.669Z,22.57
2023-01-25T06:04:26.182Z,21.13
2023-01-25T06:06:52.677Z,21.13
2023-01-25T06:09:19.134Z,22.13
2023-01-25T06:11:46.031Z,22.43
2023-01-25T06:14:12.760Z,23.23
2023-01-25T06:16:39.360Z,20.97
2023-01-25T06:19:07.096Z,21.23
2023-01-25T06:21:36.916Z,21.60
2023-01-25T06:24:04.716Z,22.67
2023-01-25T06:26:31.272Z,22.43
2023-01-25T06:28:57.775Z,22.03
2023-01-25T06:31:24.346Z,23.07
2023-01-25T06:33:52.176Z,21.70
2023-01-25T06:36:20.419Z,21.77
2023-01-25T06:38:50.975Z,21.63
2023-01-25T06:41:18.428Z,23.37
2023-01-25T06:43:45.248Z,22.97
2023-01-25T06:46:12.769Z,25.63
2023-01-25T06:48:40.143Z,24.83
2023-01-25T06:51:08.385Z,22.90
2023-01-25T06:53:37.395Z,24.97
2023-01-25T06:56:11.983Z,23.70
2023-01-25T06:58:39.104Z,23.13
2023-01-25T07:01:14.209Z,23.23
2023-01-25T07:03:41.363Z,23.13
2023-01-25T07:06:10.708Z,24.83
2023-01-25T07:08:37.692Z,24.97
2023-01-25T07:11:05.796Z,25.50
2023-01-25T07:13:33.531Z,26.83
2023-01-25T07:16:02.594Z,27.33
2023-01-25T07:18:30.211Z,26.47
2023-01-25T07:21:22.154Z,27.63
2023-01-25T07:23:49.620Z,26.07
2023-01-25T07:26:26.090Z,27.10
2023-01-25T07:28:53.627Z,26.77
2023-01-25T07:31:20.918Z,25.27
2023-01-25T07:33:49.444Z,27.57
2023-01-25T07:36:16.079Z,26.00
2023-01-25T07:38:42.840Z,25.10
2023-01-25T07:41:09.351Z,24.80
2023-01-25T07:43:35.807Z,23.80
2023-01-25T07:46:06.600Z,22.77
2023-01-25T07:48:33.530Z,20.40
2023-01-25T07:51:22.451Z,21.13
2023-01-25T07:53:52.147Z,22.03
2023-01-25T07:56:19.491Z,21.83
2023-01-25T07:58:46.659Z,21.47
2023-01-25T08:01:17.562Z,23.33
2023-01-25T08:03:44.655Z,22.60
2023-01-25T08:06:11.455Z,23.83
2023-01-25T08:08:41.061Z,23.30
2023-01-25T08:11:16.556Z,22.00
2023-01-25T08:13:46.399Z,24.53
2023-01-25T08:16:13.844Z,25.13
2023-01-25T08:18:40.584Z,25.07
2023-01-25T08:21:07.295Z,22.03
2023-01-25T08:23:33.801Z,24.63
2023-01-25T08:26:08.503Z,23.57
2023-01-25T08:28:35.834Z,24.27
2023-01-25T08:31:14.226Z,25.90
2023-01-25T08:33:41.164Z,25.27
2023-01-25T08:36:09.508Z,26.07
2023-01-25T08:38:36.363Z,25.67
2023-01-25T08:41:10.924Z,24.57
2023-01-25T08:43:38.201Z,26.17
2023-01-25T08:46:05.161Z,25.33
2023-01-25T08:48:32.083Z,27.77
2023-01-25T08:50:59.268Z,27.00
2023-01-25T08:53:28.613Z,23.57
2023-01-25T08:55:55.095Z,25.63
2023-01-25T08:58:22.639Z,23.97
2023-01-25T09:00:49.558Z,23.63
2023-01-25T09:03:18.185Z,22.90
2023-01-25T09:05:45.029Z,23.80
2023-01-25T09:08:11.562Z,23.17
2023-01-25T09:10:38.086Z,23.47
2023-01-25T09:13:06.348Z,22.10
2023-01-25T09:15:34.131Z,22.40
2023-01-25T09:18:00.565Z,23.37
2023-01-25T09:20:27.217Z,21.70
2023-01-25T09:22:55.326Z,21.90
2023-01-25T09:25:21.829Z,21.17
2023-01-25T09:27:51.818Z,22.97
2023-01-25T09:30:20.112Z,21.53
2023-01-25T09:32:49.626Z,20.63
2023-01-25T09:35:16.509Z,21.30
2023-01-25T09:37:42.964Z,21.43
2023-01-25T09:40:19.616Z,21.30
2023-01-25T09:43:06.228Z,19.77
2023-01-25T09:45:34.721Z,19.93
2023-01-25T09:48:26.201Z,20.30
2023-01-25T09:51:21.099Z,20.33
2023-01-25T09:53:50.082Z,20.73
2023-01-25T09:56:27.915Z,20.43
2023-01-25T09:58:58.888Z,20.23
2023-01-25T10:01:38.254Z,19.87
2023-01-25T10:04:31.396Z,20.83
2023-01-25T10:07:04.703Z,19.93
2023-01-25T10:09:34.312Z,19.63
2023-01-25T10:12:09.525Z,20.23
2023-01-25T10:14:36.033Z,20.40
2023-01-25T10:17:34.878Z,18.87
2023-01-25T10:20:24.222Z,20.10
2023-01-25T10:23:29.495Z,19.13
2023-01-25T10:26:01.072Z,21.63
2023-01-25T10:28:39.299Z,21.43
2023-01-25T10:31:29.737Z,21.23
2023-01-25T10:33:56.313Z,20.93
2023-01-25T10:36:28.955Z,21.93
2023-01-25T10:38:59.436Z,22.60
2023-01-25T10:41:36.981Z,22.90
2023-01-25T10:44:21.780Z,23.60
2023-01-25T10:47:15.443Z,22.43
2023-01-25T10:49:56.087Z,22.87
2023-01-25T10:52:25.056Z,23.43
2023-01-25T10:55:17.013Z,24.37
2023-01-25T10:57:51.336Z,24.53
2023-01-25T11:00:29.983Z,23.77
2023-01-25T11:02:57.191Z,23.27
2023-01-25T11:05:35.142Z,23.70
2023-01-25T11:08:30.743Z,24.60
2023-01-25T11:10:57.705Z,25.07
2023-01-25T11:13:33.253Z,25.53
2023-01-25T11:15:59.722Z,25.63
2023-01-25T11:18:29.515Z,26.03
2023-01-25T11:21:18.367Z,26.57
2023-01-25T11:24:00.431Z,27.67
2023-01-25T11:26:27.586Z,26.37
2023-01-25T11:29:10.824Z,29.03
2023-01-25T11:31:37.421Z,29.37
2023-01-25T11:34:09.686Z,30.20
2023-01-25T11:36:45.656Z,29.23
2023-01-25T11:39:44.032Z,28.67
2023-01-25T11:42:34.488Z,28.40
2023-01-25T11:45:10.281Z,29.57
2023-01-25T11:47:54.981Z,30.00
2023-01-25T11:50:28.458Z,34.13
2023-01-25T11:53:20.817Z,32.67
2023-01-25T11:55:55.922Z,34.20
2023-01-25T11:58:25.471Z,35.50
2023-01-25T12:00:59.707Z,35.53
2023-01-25T12:03:51.140Z,34.23
2023-01-25T12:06:26.767Z,33.70
2023-01-25T12:09:27.204Z,36.07
2023-01-25T12:12:16.958Z,36.97
2023-01-25T12:15:01.655Z,35.33
2023-01-25T12:17:57.683Z,36.07
2023-01-25T12:21:08.208Z,37.57
2023-01-25T12:23:43.438Z,36.87
2023-01-25T12:26:21.016Z,40.20
2023-01-25T12:29:10.493Z,40.03
2023-01-25T12:31:58.939Z,40.77
2023-01-25T12:34:36.693Z,40.20
2023-01-25T12:37:28.751Z,40.57
2023-01-25T12:40:06.626Z,40.63
2023-01-25T12:42:38.112Z,40.63
2023-01-25T12:45:14.545Z,41.93
2023-01-25T12:47:46.867Z,42.00
2023-01-25T12:50:23.877Z,42.90
2023-01-25T12:52:54.909Z,42.63
2023-01-25T12:55:21.452Z,41.80
2023-01-25T12:58:32.842Z,40.33
2023-01-25T13:01:41.156Z,40.40
2023-01-25T13:04:25.999Z,39.33
2023-01-25T13:06:55.075Z,38.13
2023-01-25T13:10:06.010Z,38.23
2023-01-25T13:12:54.078Z,38.50
2023-01-25T13:15:43.186Z,37.50
2023-01-25T13:18:24.959Z,38.60
2023-01-25T13:20:53.685Z,38.13
2023-01-25T13:23:45.842Z,38.77
2023-01-25T13:26:21.429Z,38.63
2023-01-25T13:28:49.334Z,38.90
2023-01-25T13:31:51.075Z,40.03
2023-01-25T13:34:40.188Z,38.60
2023-01-25T13:37:42.522Z,37.07
2023-01-25T13:40:31.471Z,38.47
2023-01-25T13:43:25.931Z,36.93
2023-01-25T13:45:52.980Z,38.63
2023-01-25T13:48:24.489Z,37.17
2023-01-25T13:50:53.658Z,39.93
2023-01-25T13:53:22.920Z,39.67
2023-01-25T13:55:55.180Z,41.53
2023-01-25T13:58:38.778Z,37.73
2023-01-25T14:01:17.824Z,37.60
2023-01-25T14:03:50.239Z,37.80
2023-01-25T14:06:29.194Z,39.37
2023-01-25T14:08:58.467Z,37.80
2023-01-25T14:11:27.203Z,37.40
2023-01-25T14:13:57.494Z,38.27
2023-01-25T14:16:24.110Z,38.17
2023-01-25T14:18:50.700Z,36.97
2023-01-25T14:21:19.301Z,37.17
2023-01-25T14:23:46.637Z,42.80
2023-01-25T14:26:19.155Z,39.67
2023-01-25T14:28:59.521Z,37.93
2023-01-25T14:31:33.008Z,38.73
2023-01-25T14:33:59.669Z,37.80
2023-01-25T14:36:29.807Z,39.73
2023-01-25T14:38:56.387Z,37.93
2023-01-25T14:41:30.083Z,40.07
2023-01-25T14:44:10.669Z,36.80
2023-01-25T14:46:38.475Z,37.90
2023-01-25T14:49:14.304Z,35.77
2023-01-25T14:51:49.391Z,37.70
2023-01-25T14:54:19.163Z,35.53
2023-01-25T14:56:50.959Z,36.60
2023-01-25T14:59:32.437Z,36.13
2023-01-25T15:02:20.187Z,38.47
2023-01-25T15:04:55.979Z,36.87
2023-01-25T15:07:42.276Z,37.83
2023-01-25T15:10:29.530Z,38.43
2023-01-25T15:13:21.629Z,38.37
2023-01-25T15:15:56.545Z,36.40
2023-01-25T15:18:45.328Z,37.40
2023-01-25T15:21:19.735Z,38.00
2023-01-25T15:23:47.861Z,39.30
2023-01-25T15:26:21.401Z,37.87
2023-01-25T15:28:49.342Z,37.23
2023-01-25T15:31:22.557Z,35.50
2023-01-25T15:33:49.179Z,36.07
2023-01-25T15:36:17.016Z,36.70
2023-01-25T15:38:43.513Z,35.70
2023-01-25T15:41:12.334Z,35.33
2023-01-25T15:43:38.851Z,35.63
2023-01-25T15:46:06.868Z,36.07
2023-01-25T15:48:36.946Z,36.13
2023-01-25T15:51:04.018Z,35.80
2023-01-25T15:53:30.478Z,37.50
2023-01-25T15:56:02.133Z,38.23
2023-01-25T15:58:36.741Z,37.93
2023-01-25T16:01:03.560Z,35.87
2023-01-25T16:03:30.828Z,38.40
2023-01-25T16:06:00.066Z,37.47
2023-01-25T16:08:26.650Z,36.93
2023-01-25T16:10:53.165Z,39.83
2023-01-25T16:13:19.695Z,39.17
2023-01-25T16:15:49.002Z,39.30
2023-01-25T16:18:15.490Z,37.70
2023-01-25T16:20:43.274Z,36.77
2023-01-25T16:23:13.099Z,37.63
2023-01-25T16:25:40.548Z,38.03
2023-01-25T16:28:13.787Z,37.53
2023-01-25T16:30:41.151Z,36.70
2023-01-25T16:33:07.647Z,37.27
2023-01-25T16:35:34.098Z,35.77
2023-01-25T16:38:00.557Z,36.77
2023-01-25T16:40:30.180Z,36.50
2023-01-25T16:42:57.071Z,36.43
2023-01-25T16:45:26.435Z,37.00
2023-01-25T16:47:53.500Z,37.60
2023-01-25T16:50:21.847Z,37.57
2023-01-25T16:52:51.735Z,34.70
2023-01-25T16:55:19.301Z,36.93
2023-01-25T16:57:49.836Z,36.87
2023-01-25T17:00:16.674Z,36.70
2023-01-25T17:02:53.434Z,37.60
2023-01-25T17:05:25.566Z,37.37
2023-01-25T17:07:52.073Z,39.20
2023-01-25T17:10:18.614Z,37.40
2023-01-25T17:12:45.899Z,37.13
2023-01-25T17:15:12.360Z,38.70
2023-01-25T17:17:38.843Z,35.97
2023-01-25T17:20:05.993Z,35.83
2023-01-25T17:22:37.391Z,34.00
2023-01-25T17:25:05.395Z,33.00
2023-01-25T17:27:32.311Z,32.93
2023-01-25T17:29:58.923Z,33.50
2023-01-25T17:32:25.443Z,34.67
2023-01-25T17:34:52.013Z,32.33
2023-01-25T17:37:18.462Z,32.97
2023-01-25T17:39:45.073Z,33.83
2023-01-25T17:42:13.198Z,32.07
2023-01-25T17:44:39.937Z,32.43
2023-01-25T17:47:06.604Z,32.90
2023-01-25T17:49:33.146Z,31.37
2023-01-25T17:51:59.655Z,32.50
2023-01-25T17:54:26.189Z,30.43
2023-01-25T17:56:54.096Z,32.60
2023-01-25T17:59:21.643Z,33.40
2023-01-25T18:01:48.293Z,33.07
2023-01-25T18:04:17.614Z,32.30
2023-01-25T18:06:44.359Z,33.07
2023-01-25T18:09:10.863Z,33.33
2023-01-25T18:11:39.928Z,33.13
2023-01-25T18:14:09.531Z,31.40
2023-01-25T18:16:37.946Z,33.40
2023-01-25T18:19:04.987Z,34.17
2023-01-25T18:21:33.111Z,33.77
2023-01-25T18:24:02.288Z,31.30
2023-01-25T18:26:31.821Z,30.87
2023-01-25T18:29:00.127Z,34.10
2023-01-25T18:31:26.909Z,34.30
2023-01-25T18:33:53.489Z,34.70
2023-01-25T18:36:20.499Z,34.30
2023-01-25T18:38:47.253Z,35.77
2023-01-25T18:41:17.865Z,34.93
2023-01-25T18:43:44.395Z,36.57
2023-01-25T18:46:11.541Z,37.13
2023-01-25T18:48:38.170Z,35.10
2023-01-25T18:51:13.025Z,33.23
2023-01-25T18:53:41.510Z,35.37
2023-01-25T18:56:11.392Z,34.73
2023-01-25T18:58:38.775Z,33.97
2023-01-25T19:01:16.414Z,33.93
2023-01-25T19:03:43.772Z,38.97
2023-01-25T19:06:12.456Z,33.50
2023-01-25T19:08:44.055Z,34.43
2023-01-25T19:11:21.057Z,33.33
2023-01-25T19:13:48.455Z,35.90
2023-01-25T19:16:20.378Z,33.83
2023-01-25T19:18:52.921Z,34.37
2023-01-25T19:21:28.644Z,32.70
2023-01-25T19:23:56.091Z,34.13
2023-01-25T19:26:39.152Z,34.43
2023-01-25T19:29:07.522Z,32.37
2023-01-25T19:31:48.711Z,32.53
2023-01-25T19:34:15.297Z,33.80
2023-01-25T19:36:49.401Z,32.60
2023-01-25T19:39:18.199Z,34.00
2023-01-25T19:41:45.147Z,32.30
2023-01-25T19:44:13.886Z,32.77
2023-01-25T19:46:42.933Z,33.60
2023-01-25T19:49:12.163Z,31.10
2023-01-25T19:51:44.595Z,33.93
2023-01-25T19:54:18.037Z,31.33
2023-01-25T19:56:49.586Z,27.70
2023-01-25T19:59:21.747Z,30.83
2023-01-25T20:01:49.231Z,34.90
2023-01-25T20:04:19.717Z,33.43
2023-01-25T20:06:47.426Z,32.53
2023-01-25T20:09:16.113Z,32.53
2023-01-25T20:11:43.871Z,29.23
2023-01-25T20:14:12.417Z,30.73
2023-01-25T20:16:39.352Z,26.60
2023-01-25T20:19:06.315Z,29.47
2023-01-25T20:21:33.597Z,26.93
2023-01-25T20:24:04.803Z,28.03
2023-01-25T20:26:34.701Z,28.43
2023-01-25T20:29:01.331Z,28.10
2023-01-25T20:31:38.164Z,29.03
2023-01-25T20:34:11.820Z,27.43
2023-01-25T20:36:38.976Z,26.90
2023-01-25T20:39:06.512Z,25.97
2023-01-25T20:41:33.177Z,27.37
2023-01-25T20:44:01.999Z,27.23
2023-01-25T20:46:29.807Z,26.27
2023-01-25T20:48:56.357Z,24.33
2023-01-25T20:51:24.022Z,26.10
2023-01-25T20:53:50.869Z,25.83
2023-01-25T20:56:18.648Z,25.97
2023-01-25T20:58:50.352Z,25.30
2023-01-25T21:01:28.294Z,25.70
2023-01-25T21:03:56.731Z,26.57
2023-01-25T21:06:27.470Z,25.83
2023-01-25T21:08:54.461Z,26.47
2023-01-25T21:11:23.070Z,25.93
2023-01-25T21:13:49.573Z,26.97
2023-01-25T21:16:23.174Z,28.07
2023-01-25T21:18:52.157Z,26.53
2023-01-25T21:21:32.344Z,26.90
2023-01-25T21:24:00.112Z,28.10
2023-01-25T21:26:29.277Z,27.13
2023-01-25T21:28:55.982Z,27.10
2023-01-25T21:31:24.826Z,27.77
2023-01-25T21:33:52.095Z,26.63
2023-01-25T21:36:19.213Z,28.83
2023-01-25T21:38:48.097Z,29.47
2023-01-25T21:41:21.213Z,30.53
2023-01-25T21:44:07.533Z,32.40
2023-01-25T21:46:34.929Z,32.87
2023-01-25T21:49:25.035Z,39.63
2023-01-25T21:51:53.836Z,35.30
2023-01-25T21:54:20.262Z,39.57
2023-01-25T21:56:48.440Z,53.23
2023-01-25T21:59:15.137Z,41.93
2023-01-25T22:01:45.084Z,47.00
2023-01-25T22:04:12.814Z,51.90
2023-01-25T22:06:39.960Z,36.13
2023-01-25T22:09:07.365Z,37.60
2023-01-25T22:11:34.138Z,35.93
2023-01-25T22:14:01.285Z,34.37
2023-01-25T22:16:31.465Z,32.77
2023-01-25T22:19:02.351Z,33.30
2023-01-25T22:21:54.654Z,34.43
2023-01-25T22:24:30.276Z,34.17
2023-01-25T22:27:15.962Z,35.43
2023-01-25T22:29:42.401Z,36.33
2023-01-25T22:32:08.919Z,33.33
2023-01-25T22:34:35.789Z,34.33
2023-01-25T22:37:02.238Z,34.17
2023-01-25T22:39:28.717Z,34.80
2023-01-25T22:41:56.510Z,36.77
2023-01-25T22:44:22.940Z,35.53
2023-01-25T22:46:50.655Z,36.23
2023-01-25T22:49:17.184Z,38.27
2023-01-25T22:51:43.668Z,39.00
2023-01-25T22:54:10.112Z,37.23
2023-01-25T22:56:36.739Z,39.03
2023-01-25T22:59:03.573Z,38.43
2023-01-25T23:01:34.512Z,39.07
2023-01-25T23:04:01.944Z,38.70
2023-01-25T23:06:30.406Z,39.10
2023-01-25T23:08:59.759Z,36.43
2023-01-25T23:11:32.252Z,40.10
2023-01-25T23:14:18.352Z,41.17
2023-01-25T23:16:44.923Z,40.60
2023-01-25T23:19:11.589Z,38.43
2023-01-25T23:21:38.198Z,40.23
2023-01-25T23:24:05.164Z,40.00
2023-01-25T23:26:40.948Z,41.43
2023-01-25T23:29:10.537Z,40.03
2023-01-25T23:31:37.264Z,40.43
2023-01-25T23:34:06.003Z,42.93
2023-01-25T23:36:34.724Z,38.87
2023-01-25T23:39:01.338Z,42.07
2023-01-25T23:41:29.079Z,40.87
2023-01-25T23:43:56.392Z,39.87
2023-01-25T23:46:23.517Z,37.53
2023-01-25T23:48:50.128Z,40.47
2023-01-25T23:51:17.519Z,36.47
2023-01-25T23:53:44.214Z,35.10
2023-01-25T23:56:13.966Z,37.47
2023-01-25T23:58:40.485Z,38.77
